sensor_id;sensor_type;location;lat;lon;timestamp;P1;durP1;ratioP1;P2;durP2;ratioP2
78489;SDS011;67776;52.012;4.736;2023-04-01T00:01:14;47.70;;;13.10;;
78489;SDS011;67776;52.012;4.736;2023-04-01T00:03:41;54.28;;;16.10;;
78489;SDS011;67776;52.012;4.736;2023-04-01T00:06:06;52.23;;;14.90;;
78489;SDS011;67776;52.012;4.736;2023-04-01T00:08:32;50.53;;;16.77;;
78489;SDS011;67776;52.012;4.736;2023-04-01T00:10:57;59.93;;;19.37;;
78489;SDS011;67776;52.012;4.736;2023-04-01T00:13:24;49.57;;;17.30;;
78489;SDS011;67776;52.012;4.736;2023-04-01T00:15:51;60.33;;;18.70;;
78489;SDS011;67776;52.012;4.736;2023-04-01T00:18:17;68.85;;;19.13;;
78489;SDS011;67776;52.012;4.736;2023-04-01T00:20:46;58.47;;;18.60;;
78489;SDS011;67776;52.012;4.736;2023-04-01T00:23:15;55.13;;;15.23;;
78489;SDS011;67776;52.012;4.736;2023-04-01T00:25:40;41.87;;;11.10;;
78489;SDS011;67776;52.012;4.736;2023-04-01T00:28:06;48.87;;;13.47;;
78489;SDS011;67776;52.012;4.736;2023-04-01T00:30:31;47.25;;;10.68;;
78489;SDS011;67776;52.012;4.736;2023-04-01T00:32:57;52.27;;;12.20;;
78489;SDS011;67776;52.012;4.736;2023-04-01T00:35:22;42.93;;;10.93;;
78489;SDS011;67776;52.012;4.736;2023-04-01T00:37:48;49.70;;;10.55;;
78489;SDS011;67776;52.012;4.736;2023-04-01T00:40:22;39.97;;;9.00;;
78489;SDS011;67776;52.012;4.736;2023-04-01T00:42:53;47.28;;;11.88;;
78489;SDS011;67776;52.012;4.736;2023-04-01T00:45:25;47.07;;;12.87;;
78489;SDS011;67776;52.012;4.736;2023-04-01T00:47:55;41.33;;;10.45;;
78489;SDS011;67776;52.012;4.736;2023-04-01T00:50:22;38.28;;;10.60;;
78489;SDS011;67776;52.012;4.736;2023-04-01T00:52:51;37.78;;;10.18;;
78489;SDS011;67776;52.012;4.736;2023-04-01T00:55:18;39.30;;;9.90;;
78489;SDS011;67776;52.012;4.736;2023-04-01T00:57:46;34.72;;;9.13;;
78489;SDS011;67776;52.012;4.736;2023-04-01T01:00:14;41.47;;;10.18;;
78489;SDS011;67776;52.012;4.736;2023-04-01T01:02:44;46.42;;;11.00;;
78489;SDS011;67776;52.012;4.736;2023-04-01T01:05:14;39.38;;;10.88;;
78489;SDS011;67776;52.012;4.736;2023-04-01T01:10:10;37.60;;;8.97;;
78489;SDS011;67776;52.012;4.736;2023-04-01T01:15:08;38.83;;;8.77;;
78489;SDS011;67776;52.012;4.736;2023-04-01T01:17:43;37.92;;;9.13;;
78489;SDS011;67776;52.012;4.736;2023-04-01T01:20:34;38.88;;;9.25;;
78489;SDS011;67776;52.012;4.736;2023-04-01T01:28:51;33.80;;;8.77;;
78489;SDS011;67776;52.012;4.736;2023-04-01T01:31:51;36.33;;;9.20;;
78489;SDS011;67776;52.012;4.736;2023-04-01T01:34:27;25.13;;;6.20;;
78489;SDS011;67776;52.012;4.736;2023-04-01T01:37:02;28.00;;;7.20;;
78489;SDS011;67776;52.012;4.736;2023-04-01T01:39:33;29.67;;;6.50;;
78489;SDS011;67776;52.012;4.736;2023-04-01T01:42:01;29.27;;;7.03;;
78489;SDS011;67776;52.012;4.736;2023-04-01T01:44:30;36.40;;;7.88;;
78489;SDS011;67776;52.012;4.736;2023-04-01T01:46:58;30.08;;;7.22;;
78489;SDS011;67776;52.012;4.736;2023-04-01T01:49:25;29.30;;;6.97;;
78489;SDS011;67776;52.012;4.736;2023-04-01T01:51:55;32.50;;;7.28;;
78489;SDS011;67776;52.012;4.736;2023-04-01T01:54:21;26.80;;;6.50;;
78489;SDS011;67776;52.012;4.736;2023-04-01T01:56:47;25.87;;;6.30;;
78489;SDS011;67776;52.012;4.736;2023-04-01T01:59:15;29.58;;;6.78;;
78489;SDS011;67776;52.012;4.736;2023-04-01T02:01:42;23.85;;;7.07;;
78489;SDS011;67776;52.012;4.736;2023-04-01T02:04:11;28.35;;;7.30;;
78489;SDS011;67776;52.012;4.736;2023-04-01T02:06:42;24.30;;;7.30;;
78489;SDS011;67776;52.012;4.736;2023-04-01T02:09:11;25.90;;;7.32;;
78489;SDS011;67776;52.012;4.736;2023-04-01T02:11:41;33.13;;;8.48;;
78489;SDS011;67776;52.012;4.736;2023-04-01T02:14:16;26.23;;;7.53;;
78489;SDS011;67776;52.012;4.736;2023-04-01T02:16:48;28.95;;;8.30;;
78489;SDS011;67776;52.012;4.736;2023-04-01T02:19:18;35.05;;;10.52;;
78489;SDS011;67776;52.012;4.736;2023-04-01T02:21:47;33.08;;;8.95;;
78489;SDS011;67776;52.012;4.736;2023-04-01T02:24:16;31.25;;;8.95;;
78489;SDS011;67776;52.012;4.736;2023-04-01T02:26:43;29.10;;;8.53;;
78489;SDS011;67776;52.012;4.736;2023-04-01T02:29:10;27.60;;;8.05;;
78489;SDS011;67776;52.012;4.736;2023-04-01T02:31:37;42.20;;;8.77;;
78489;SDS011;67776;52.012;4.736;2023-04-01T02:34:02;33.60;;;8.63;;
78489;SDS011;67776;52.012;4.736;2023-04-01T02:36:28;28.48;;;7.97;;
78489;SDS011;67776;52.012;4.736;2023-04-01T02:38:53;28.23;;;7.70;;
78489;SDS011;67776;52.012;4.736;2023-04-01T02:41:20;27.75;;;7.30;;
78489;SDS011;67776;52.012;4.736;2023-04-01T02:43:46;28.30;;;7.07;;
78489;SDS011;67776;52.012;4.736;2023-04-01T02:46:11;28.47;;;7.80;;
78489;SDS011;67776;52.012;4.736;2023-04-01T02:48:36;30.25;;;7.63;;
78489;SDS011;67776;52.012;4.736;2023-04-01T02:51:02;29.67;;;7.90;;
78489;SDS011;67776;52.012;4.736;2023-04-01T02:53:28;23.77;;;7.82;;
78489;SDS011;67776;52.012;4.736;2023-04-01T02:55:54;29.20;;;8.63;;
78489;SDS011;67776;52.012;4.736;2023-04-01T02:58:20;29.60;;;8.57;;
78489;SDS011;67776;52.012;4.736;2023-04-01T03:00:46;32.77;;;10.13;;
78489;SDS011;67776;52.012;4.736;2023-04-01T03:03:11;33.53;;;9.63;;
78489;SDS011;67776;52.012;4.736;2023-04-01T03:05:38;34.92;;;10.38;;
78489;SDS011;67776;52.012;4.736;2023-04-01T03:08:03;35.10;;;9.53;;
78489;SDS011;67776;52.012;4.736;2023-04-01T03:10:29;39.93;;;11.70;;
78489;SDS011;67776;52.012;4.736;2023-04-01T03:12:54;39.77;;;11.73;;
78489;SDS011;67776;52.012;4.736;2023-04-01T03:15:20;40.80;;;12.57;;
78489;SDS011;67776;52.012;4.736;2023-04-01T03:17:45;37.57;;;12.60;;
78489;SDS011;67776;52.012;4.736;2023-04-01T03:20:11;43.53;;;12.15;;
78489;SDS011;67776;52.012;4.736;2023-04-01T03:22:37;38.47;;;11.70;;
78489;SDS011;67776;52.012;4.736;2023-04-01T03:25:03;38.40;;;12.25;;
78489;SDS011;67776;52.012;4.736;2023-04-01T03:27:29;38.58;;;11.73;;
78489;SDS011;67776;52.012;4.736;2023-04-01T03:29:55;37.93;;;11.60;;
78489;SDS011;67776;52.012;4.736;2023-04-01T03:32:20;47.87;;;13.10;;
78489;SDS011;67776;52.012;4.736;2023-04-01T03:34:45;37.83;;;11.33;;
78489;SDS011;67776;52.012;4.736;2023-04-01T03:37:11;39.07;;;11.13;;
78489;SDS011;67776;52.012;4.736;2023-04-01T03:39:36;31.73;;;9.57;;
78489;SDS011;67776;52.012;4.736;2023-04-01T03:42:02;27.37;;;8.93;;
78489;SDS011;67776;52.012;4.736;2023-04-01T03:44:31;34.50;;;9.43;;
78489;SDS011;67776;52.012;4.736;2023-04-01T03:46:57;31.27;;;9.13;;
78489;SDS011;67776;52.012;4.736;2023-04-01T03:49:22;30.10;;;9.00;;
78489;SDS011;67776;52.012;4.736;2023-04-01T03:51:48;30.40;;;9.30;;
78489;SDS011;67776;52.012;4.736;2023-04-01T03:54:13;34.13;;;9.33;;
78489;SDS011;67776;52.012;4.736;2023-04-01T03:56:38;31.37;;;9.07;;
78489;SDS011;67776;52.012;4.736;2023-04-01T03:59:05;33.17;;;8.70;;
78489;SDS011;67776;52.012;4.736;2023-04-01T04:01:31;34.42;;;8.75;;
78489;SDS011;67776;52.012;4.736;2023-04-01T04:03:57;33.80;;;9.37;;
78489;SDS011;67776;52.012;4.736;2023-04-01T04:06:23;34.20;;;8.60;;
78489;SDS011;67776;52.012;4.736;2023-04-01T04:08:49;34.78;;;9.13;;
78489;SDS011;67776;52.012;4.736;2023-04-01T04:11:15;37.23;;;9.77;;
78489;SDS011;67776;52.012;4.736;2023-04-01T04:13:41;35.08;;;8.73;;
78489;SDS011;67776;52.012;4.736;2023-04-01T04:16:07;35.72;;;9.00;;
78489;SDS011;67776;52.012;4.736;2023-04-01T04:18:34;32.03;;;8.88;;
78489;SDS011;67776;52.012;4.736;2023-04-01T04:21:00;31.17;;;8.83;;
78489;SDS011;67776;52.012;4.736;2023-04-01T04:23:25;32.60;;;8.63;;
78489;SDS011;67776;52.012;4.736;2023-04-01T04:25:59;30.23;;;7.93;;
78489;SDS011;67776;52.012;4.736;2023-04-01T04:28:29;31.52;;;8.52;;
78489;SDS011;67776;52.012;4.736;2023-04-01T04:30:55;32.83;;;9.80;;
78489;SDS011;67776;52.012;4.736;2023-04-01T04:33:21;31.33;;;9.43;;
78489;SDS011;67776;52.012;4.736;2023-04-01T04:35:47;34.22;;;9.30;;
78489;SDS011;67776;52.012;4.736;2023-04-01T04:38:13;31.17;;;8.83;;
78489;SDS011;67776;52.012;4.736;2023-04-01T04:40:39;35.10;;;9.68;;
78489;SDS011;67776;52.012;4.736;2023-04-01T04:43:06;35.97;;;9.57;;
78489;SDS011;67776;52.012;4.736;2023-04-01T04:45:31;29.80;;;8.77;;
78489;SDS011;67776;52.012;4.736;2023-04-01T04:47:57;30.77;;;9.47;;
78489;SDS011;67776;52.012;4.736;2023-04-01T04:50:22;26.77;;;8.75;;
78489;SDS011;67776;52.012;4.736;2023-04-01T04:52:48;34.57;;;9.53;;
78489;SDS011;67776;52.012;4.736;2023-04-01T04:55:13;27.45;;;8.80;;
78489;SDS011;67776;52.012;4.736;2023-04-01T04:57:40;36.23;;;11.10;;
78489;SDS011;67776;52.012;4.736;2023-04-01T05:00:06;36.38;;;9.98;;
78489;SDS011;67776;52.012;4.736;2023-04-01T05:02:32;35.55;;;10.43;;
78489;SDS011;67776;52.012;4.736;2023-04-01T05:04:58;31.63;;;9.87;;
78489;SDS011;67776;52.012;4.736;2023-04-01T05:07:23;39.43;;;11.17;;
78489;SDS011;67776;52.012;4.736;2023-04-01T05:09:48;42.60;;;11.90;;
78489;SDS011;67776;52.012;4.736;2023-04-01T05:12:14;37.50;;;11.63;;
78489;SDS011;67776;52.012;4.736;2023-04-01T05:14:40;44.03;;;12.63;;
78489;SDS011;67776;52.012;4.736;2023-04-01T05:17:08;36.30;;;11.53;;
78489;SDS011;67776;52.012;4.736;2023-04-01T05:19:35;43.37;;;11.90;;
78489;SDS011;67776;52.012;4.736;2023-04-01T05:22:00;38.10;;;11.80;;
78489;SDS011;67776;52.012;4.736;2023-04-01T05:24:26;41.90;;;11.03;;
78489;SDS011;67776;52.012;4.736;2023-04-01T05:26:51;33.00;;;10.03;;
78489;SDS011;67776;52.012;4.736;2023-04-01T05:29:16;40.93;;;10.63;;
78489;SDS011;67776;52.012;4.736;2023-04-01T05:31:41;36.83;;;10.77;;
78489;SDS011;67776;52.012;4.736;2023-04-01T05:34:07;36.93;;;10.70;;
78489;SDS011;67776;52.012;4.736;2023-04-01T05:36:32;30.00;;;8.97;;
78489;SDS011;67776;52.012;4.736;2023-04-01T05:38:58;32.53;;;9.07;;
78489;SDS011;67776;52.012;4.736;2023-04-01T05:41:23;29.47;;;8.07;;
78489;SDS011;67776;52.012;4.736;2023-04-01T05:43:48;30.47;;;8.47;;
78489;SDS011;67776;52.012;4.736;2023-04-01T05:46:14;27.60;;;8.07;;
78489;SDS011;67776;52.012;4.736;2023-04-01T05:48:39;31.77;;;9.33;;
78489;SDS011;67776;52.012;4.736;2023-04-01T05:51:04;33.00;;;9.33;;
78489;SDS011;67776;52.012;4.736;2023-04-01T05:53:30;35.47;;;10.77;;
78489;SDS011;67776;52.012;4.736;2023-04-01T05:55:55;38.60;;;10.70;;
78489;SDS011;67776;52.012;4.736;2023-04-01T05:58:21;37.10;;;10.83;;
78489;SDS011;67776;52.012;4.736;2023-04-01T06:00:46;36.92;;;9.98;;
78489;SDS011;67776;52.012;4.736;2023-04-01T06:03:11;31.57;;;10.03;;
78489;SDS011;67776;52.012;4.736;2023-04-01T06:05:40;34.10;;;9.63;;
78489;SDS011;67776;52.012;4.736;2023-04-01T06:08:14;33.88;;;9.70;;
78489;SDS011;67776;52.012;4.736;2023-04-01T06:10:52;36.60;;;10.40;;
78489;SDS011;67776;52.012;4.736;2023-04-01T06:16:04;30.02;;;9.48;;
78489;SDS011;67776;52.012;4.736;2023-04-01T06:18:50;28.30;;;9.77;;
78489;SDS011;67776;52.012;4.736;2023-04-01T06:27:00;38.90;;;10.20;;
78489;SDS011;67776;52.012;4.736;2023-04-01T06:38:01;35.60;;;10.17;;
78489;SDS011;67776;52.012;4.736;2023-04-01T06:46:21;45.50;;;12.77;;
78489;SDS011;67776;52.012;4.736;2023-04-01T06:52:05;41.07;;;13.93;;
78489;SDS011;67776;52.012;4.736;2023-04-01T06:54:36;48.75;;;14.77;;
78489;SDS011;67776;52.012;4.736;2023-04-01T06:57:09;45.97;;;15.77;;
78489;SDS011;67776;52.012;4.736;2023-04-01T07:00:11;50.03;;;17.10;;
78489;SDS011;67776;52.012;4.736;2023-04-01T07:02:43;45.83;;;15.20;;
78489;SDS011;67776;52.012;4.736;2023-04-01T07:05:15;48.70;;;14.73;;
78489;SDS011;67776;52.012;4.736;2023-04-01T07:07:45;43.72;;;14.77;;
78489;SDS011;67776;52.012;4.736;2023-04-01T07:10:17;47.28;;;14.95;;
78489;SDS011;67776;52.012;4.736;2023-04-01T07:12:53;45.72;;;13.60;;
78489;SDS011;67776;52.012;4.736;2023-04-01T07:15:23;49.65;;;15.00;;
78489;SDS011;67776;52.012;4.736;2023-04-01T07:17:55;33.57;;;10.63;;
78489;SDS011;67776;52.012;4.736;2023-04-01T07:20:27;44.45;;;14.43;;
78489;SDS011;67776;52.012;4.736;2023-04-01T07:22:57;48.25;;;13.68;;
78489;SDS011;67776;52.012;4.736;2023-04-01T07:25:31;44.63;;;14.73;;
78489;SDS011;67776;52.012;4.736;2023-04-01T07:28:01;45.00;;;13.77;;
78489;SDS011;67776;52.012;4.736;2023-04-01T07:30:39;41.43;;;14.13;;
78489;SDS011;67776;52.012;4.736;2023-04-01T07:36:13;44.10;;;14.43;;
78489;SDS011;67776;52.012;4.736;2023-04-01T08:02:23;38.80;;;11.02;;
78489;SDS011;67776;52.012;4.736;2023-04-01T08:05:00;31.77;;;10.33;;
78489;SDS011;67776;52.012;4.736;2023-04-01T08:10:01;31.92;;;9.95;;
78489;SDS011;67776;52.012;4.736;2023-04-01T08:12:34;32.25;;;10.85;;
78489;SDS011;67776;52.012;4.736;2023-04-01T08:16:03;29.63;;;9.93;;
78489;SDS011;67776;52.012;4.736;2023-04-01T08:21:31;27.95;;;9.45;;
78489;SDS011;67776;52.012;4.736;2023-04-01T08:24:04;32.55;;;9.63;;
78489;SDS011;67776;52.012;4.736;2023-04-01T08:26:37;33.40;;;9.55;;
78489;SDS011;67776;52.012;4.736;2023-04-01T08:29:15;30.92;;;9.38;;
78489;SDS011;67776;52.012;4.736;2023-04-01T08:32:18;25.50;;;8.80;;
78489;SDS011;67776;52.012;4.736;2023-04-01T08:34:52;30.30;;;9.30;;
78489;SDS011;67776;52.012;4.736;2023-04-01T08:37:31;29.45;;;9.52;;
78489;SDS011;67776;52.012;4.736;2023-04-01T08:40:01;27.33;;;8.68;;
78489;SDS011;67776;52.012;4.736;2023-04-01T08:56:14;25.73;;;8.70;;
78489;SDS011;67776;52.012;4.736;2023-04-01T08:58:54;26.23;;;8.70;;
78489;SDS011;67776;52.012;4.736;2023-04-01T09:06:50;25.55;;;8.65;;
78489;SDS011;67776;52.012;4.736;2023-04-01T09:28:42;19.92;;;6.95;;
78489;SDS011;67776;52.012;4.736;2023-04-01T09:44:29;32.00;;;9.17;;
78489;SDS011;67776;52.012;4.736;2023-04-01T09:50:00;27.77;;;8.32;;
78489;SDS011;67776;52.012;4.736;2023-04-01T09:53:14;23.05;;;6.65;;
78489;SDS011;67776;52.012;4.736;2023-04-01T10:01:15;13.60;;;5.20;;
78489;SDS011;67776;52.012;4.736;2023-04-01T10:14:35;13.65;;;4.60;;
78489;SDS011;67776;52.012;4.736;2023-04-01T10:31:25;17.50;;;6.28;;
78489;SDS011;67776;52.012;4.736;2023-04-01T10:37:03;18.35;;;6.28;;
78489;SDS011;67776;52.012;4.736;2023-04-01T10:51:12;21.55;;;6.95;;
78489;SDS011;67776;52.012;4.736;2023-04-01T10:56:39;24.85;;;7.85;;
78489;SDS011;67776;52.012;4.736;2023-04-01T11:07:28;18.33;;;7.00;;
78489;SDS011;67776;52.012;4.736;2023-04-01T11:12:51;17.88;;;7.03;;
78489;SDS011;67776;52.012;4.736;2023-04-01T11:15:28;21.58;;;7.75;;
78489;SDS011;67776;52.012;4.736;2023-04-01T11:26:47;15.93;;;6.85;;
78489;SDS011;67776;52.012;4.736;2023-04-01T11:37:20;15.30;;;5.30;;
78489;SDS011;67776;52.012;4.736;2023-04-01T11:42:19;16.55;;;6.68;;
78489;SDS011;67776;52.012;4.736;2023-04-01T11:44:57;19.23;;;7.10;;
78489;SDS011;67776;52.012;4.736;2023-04-01T11:50:43;18.33;;;6.97;;
78489;SDS011;67776;52.012;4.736;2023-04-01T11:53:34;19.83;;;7.40;;
78489;SDS011;67776;52.012;4.736;2023-04-01T12:04:40;16.10;;;6.70;;
78489;SDS011;67776;52.012;4.736;2023-04-01T12:10:26;15.95;;;6.55;;
78489;SDS011;67776;52.012;4.736;2023-04-01T12:13:16;16.50;;;6.60;;
78489;SDS011;67776;52.012;4.736;2023-04-01T12:21:32;17.17;;;7.65;;
78489;SDS011;67776;52.012;4.736;2023-04-01T12:35:30;17.85;;;8.82;;
78489;SDS011;67776;52.012;4.736;2023-04-01T12:40:46;19.88;;;9.30;;
78489;SDS011;67776;52.012;4.736;2023-04-01T12:43:33;20.43;;;8.97;;
78489;SDS011;67776;52.012;4.736;2023-04-01T12:46:35;20.67;;;9.25;;
78489;SDS011;67776;52.012;4.736;2023-04-01T12:49:10;20.27;;;9.38;;
78489;SDS011;67776;52.012;4.736;2023-04-01T12:52:15;20.45;;;9.90;;
78489;SDS011;67776;52.012;4.736;2023-04-01T13:08:49;22.30;;;9.07;;
78489;SDS011;67776;52.012;4.736;2023-04-01T13:19:58;24.08;;;8.93;;
78489;SDS011;67776;52.012;4.736;2023-04-01T13:42:27;21.93;;;9.20;;
78489;SDS011;67776;52.012;4.736;2023-04-01T13:50:37;26.13;;;9.50;;
78489;SDS011;67776;52.012;4.736;2023-04-01T13:59:07;17.15;;;7.68;;
78489;SDS011;67776;52.012;4.736;2023-04-01T14:02:11;15.15;;;6.50;;
78489;SDS011;67776;52.012;4.736;2023-04-01T14:07:56;18.40;;;7.78;;
78489;SDS011;67776;52.012;4.736;2023-04-01T14:10:43;18.10;;;7.83;;
78489;SDS011;67776;52.012;4.736;2023-04-01T14:21:43;16.60;;;7.20;;
78489;SDS011;67776;52.012;4.736;2023-04-01T14:24:31;23.13;;;7.47;;
78489;SDS011;67776;52.012;4.736;2023-04-01T14:35:34;16.83;;;6.88;;
78489;SDS011;67776;52.012;4.736;2023-04-01T14:46:50;15.13;;;6.32;;
78489;SDS011;67776;52.012;4.736;2023-04-01T14:49:37;18.33;;;6.68;;
78489;SDS011;67776;52.012;4.736;2023-04-01T14:52:11;21.57;;;6.73;;
78489;SDS011;67776;52.012;4.736;2023-04-01T14:54:56;20.92;;;6.97;;
78489;SDS011;67776;52.012;4.736;2023-04-01T14:59:53;16.50;;;6.05;;
78489;SDS011;67776;52.012;4.736;2023-04-01T15:13:29;10.60;;;4.65;;
78489;SDS011;67776;52.012;4.736;2023-04-01T15:16:27;13.55;;;5.35;;
78489;SDS011;67776;52.012;4.736;2023-04-01T15:22:05;14.70;;;5.60;;
78489;SDS011;67776;52.012;4.736;2023-04-01T15:30:27;15.15;;;6.80;;
78489;SDS011;67776;52.012;4.736;2023-04-01T15:35:57;18.50;;;7.32;;
78489;SDS011;67776;52.012;4.736;2023-04-01T15:38:33;16.77;;;6.57;;
78489;SDS011;67776;52.012;4.736;2023-04-01T15:41:14;16.48;;;7.32;;
78489;SDS011;67776;52.012;4.736;2023-04-01T15:43:42;16.15;;;7.70;;
78489;SDS011;67776;52.012;4.736;2023-04-01T16:02:18;16.13;;;6.65;;
78489;SDS011;67776;52.012;4.736;2023-04-01T16:05:08;15.20;;;6.82;;
78489;SDS011;67776;52.012;4.736;2023-04-01T16:07:59;13.13;;;6.30;;
78489;SDS011;67776;52.012;4.736;2023-04-01T16:13:14;13.80;;;5.90;;
78489;SDS011;67776;52.012;4.736;2023-04-01T16:15:52;13.60;;;5.95;;
78489;SDS011;67776;52.012;4.736;2023-04-01T16:18:34;13.73;;;5.97;;
78489;SDS011;67776;52.012;4.736;2023-04-01T16:21:06;12.93;;;5.90;;
78489;SDS011;67776;52.012;4.736;2023-04-01T16:23:40;13.57;;;6.03;;
78489;SDS011;67776;52.012;4.736;2023-04-01T16:26:15;12.95;;;5.68;;
78489;SDS011;67776;52.012;4.736;2023-04-01T16:34:17;14.30;;;6.60;;
78489;SDS011;67776;52.012;4.736;2023-04-01T16:37:00;14.67;;;6.67;;
78489;SDS011;67776;52.012;4.736;2023-04-01T16:39:53;12.85;;;6.57;;
78489;SDS011;67776;52.012;4.736;2023-04-01T16:42:49;15.82;;;7.10;;
78489;SDS011;67776;52.012;4.736;2023-04-01T16:48:12;12.82;;;6.45;;
78489;SDS011;67776;52.012;4.736;2023-04-01T16:55:48;13.23;;;6.50;;
78489;SDS011;67776;52.012;4.736;2023-04-01T16:58:18;14.15;;;6.70;;
78489;SDS011;67776;52.012;4.736;2023-04-01T17:00:50;15.60;;;6.40;;
78489;SDS011;67776;52.012;4.736;2023-04-01T17:03:33;13.73;;;6.53;;
78489;SDS011;67776;52.012;4.736;2023-04-01T17:06:11;14.93;;;5.78;;
78489;SDS011;67776;52.012;4.736;2023-04-01T17:11:56;12.75;;;6.28;;
78489;SDS011;67776;52.012;4.736;2023-04-01T17:22:34;9.90;;;5.30;;
78489;SDS011;67776;52.012;4.736;2023-04-01T17:27:51;8.30;;;4.05;;
78489;SDS011;67776;52.012;4.736;2023-04-01T17:38:54;8.70;;;3.72;;
78489;SDS011;67776;52.012;4.736;2023-04-01T17:41:42;8.77;;;4.38;;
78489;SDS011;67776;52.012;4.736;2023-04-01T17:47:07;7.95;;;4.03;;
78489;SDS011;67776;52.012;4.736;2023-04-01T18:00:03;8.52;;;3.92;;
78489;SDS011;67776;52.012;4.736;2023-04-01T18:02:41;7.90;;;3.80;;
78489;SDS011;67776;52.012;4.736;2023-04-01T18:13:30;8.10;;;4.07;;
78489;SDS011;67776;52.012;4.736;2023-04-01T18:18:47;9.02;;;4.63;;
78489;SDS011;67776;52.012;4.736;2023-04-01T18:40:42;6.83;;;3.50;;
78489;SDS011;67776;52.012;4.736;2023-04-01T18:48:30;8.50;;;4.35;;
78489;SDS011;67776;52.012;4.736;2023-04-01T18:51:03;9.68;;;4.82;;
78489;SDS011;67776;52.012;4.736;2023-04-01T18:53:41;9.95;;;5.30;;
78489;SDS011;67776;52.012;4.736;2023-04-01T18:56:13;8.25;;;4.38;;
78489;SDS011;67776;52.012;4.736;2023-04-01T18:59:08;10.00;;;5.13;;
78489;SDS011;67776;52.012;4.736;2023-04-01T19:01:39;9.95;;;5.03;;
78489;SDS011;67776;52.012;4.736;2023-04-01T19:06:56;10.32;;;5.22;;
78489;SDS011;67776;52.012;4.736;2023-04-01T19:20:42;11.18;;;5.32;;
78489;SDS011;67776;52.012;4.736;2023-04-01T19:26:17;11.17;;;5.90;;
78489;SDS011;67776;52.012;4.736;2023-04-01T19:28:56;9.85;;;5.55;;
78489;SDS011;67776;52.012;4.736;2023-04-01T19:47:49;10.45;;;5.30;;
78489;SDS011;67776;52.012;4.736;2023-04-01T19:50:27;11.50;;;5.10;;
78489;SDS011;67776;52.012;4.736;2023-04-01T19:53:21;10.75;;;5.43;;
78489;SDS011;67776;52.012;4.736;2023-04-01T19:55:59;10.70;;;5.83;;
78489;SDS011;67776;52.012;4.736;2023-04-01T19:59:31;13.32;;;5.90;;
78489;SDS011;67776;52.012;4.736;2023-04-01T20:01:44;11.07;;;5.93;;
78489;SDS011;67776;52.012;4.736;2023-04-01T20:04:14;10.90;;;5.82;;
78489;SDS011;67776;52.012;4.736;2023-04-01T20:06:55;12.00;;;6.10;;
78489;SDS011;67776;52.012;4.736;2023-04-01T20:18:32;12.70;;;6.75;;
78489;SDS011;67776;52.012;4.736;2023-04-01T20:21:03;12.45;;;5.97;;
78489;SDS011;67776;52.012;4.736;2023-04-01T20:23:45;11.33;;;6.20;;
78489;SDS011;67776;52.012;4.736;2023-04-01T20:26:21;11.77;;;5.95;;
78489;SDS011;67776;52.012;4.736;2023-04-01T20:31:33;10.93;;;5.55;;
78489;SDS011;67776;52.012;4.736;2023-04-01T20:34:08;10.77;;;5.18;;
78489;SDS011;67776;52.012;4.736;2023-04-01T20:36:59;14.07;;;6.23;;
78489;SDS011;67776;52.012;4.736;2023-04-01T20:45:56;11.35;;;5.80;;
78489;SDS011;67776;52.012;4.736;2023-04-01T20:48:29;12.73;;;6.50;;
78489;SDS011;67776;52.012;4.736;2023-04-01T20:53:58;12.85;;;6.55;;
78489;SDS011;67776;52.012;4.736;2023-04-01T21:07:56;12.48;;;6.60;;
78489;SDS011;67776;52.012;4.736;2023-04-01T21:10:36;12.53;;;6.30;;
78489;SDS011;67776;52.012;4.736;2023-04-01T21:13:29;13.20;;;6.40;;
78489;SDS011;67776;52.012;4.736;2023-04-01T21:18:46;12.55;;;6.50;;
78489;SDS011;67776;52.012;4.736;2023-04-01T21:24:28;14.70;;;6.90;;
78489;SDS011;67776;52.012;4.736;2023-04-01T21:32:20;12.38;;;6.53;;
78489;SDS011;67776;52.012;4.736;2023-04-01T21:41:05;17.48;;;8.50;;
78489;SDS011;67776;52.012;4.736;2023-04-01T22:00:32;10.75;;;5.63;;
78489;SDS011;67776;52.012;4.736;2023-04-01T22:11:08;12.15;;;6.18;;
78489;SDS011;67776;52.012;4.736;2023-04-01T22:13:59;14.35;;;6.82;;
78489;SDS011;67776;52.012;4.736;2023-04-01T22:22:45;13.52;;;6.60;;
78489;SDS011;67776;52.012;4.736;2023-04-01T22:25:29;10.73;;;5.72;;
78489;SDS011;67776;52.012;4.736;2023-04-01T22:28:12;14.50;;;7.10;;
78489;SDS011;67776;52.012;4.736;2023-04-01T22:30:50;12.70;;;6.72;;
78489;SDS011;67776;52.012;4.736;2023-04-01T22:38:47;13.52;;;6.55;;
78489;SDS011;67776;52.012;4.736;2023-04-01T22:47:24;13.20;;;6.80;;
78489;SDS011;67776;52.012;4.736;2023-04-01T22:52:56;15.90;;;7.93;;
78489;SDS011;67776;52.012;4.736;2023-04-01T22:55:44;15.75;;;7.55;;
78489;SDS011;67776;52.012;4.736;2023-04-01T22:58:14;14.60;;;7.43;;
78489;SDS011;67776;52.012;4.736;2023-04-01T23:00:47;12.80;;;6.87;;
78489;SDS011;67776;52.012;4.736;2023-04-01T23:03:29;14.25;;;7.70;;
78489;SDS011;67776;52.012;4.736;2023-04-01T23:06:05;15.07;;;7.68;;
78489;SDS011;67776;52.012;4.736;2023-04-01T23:11:06;13.93;;;7.22;;
78489;SDS011;67776;52.012;4.736;2023-04-01T23:13:49;12.77;;;6.70;;
78489;SDS011;67776;52.012;4.736;2023-04-01T23:16:35;13.52;;;7.35;;
78489;SDS011;67776;52.012;4.736;2023-04-01T23:22:21;15.05;;;8.15;;
78489;SDS011;67776;52.012;4.736;2023-04-01T23:24:53;16.35;;;8.18;;
78489;SDS011;67776;52.012;4.736;2023-04-01T23:27:25;15.30;;;7.60;;
78489;SDS011;67776;52.012;4.736;2023-04-01T23:30:02;17.90;;;9.02;;
78489;SDS011;67776;52.012;4.736;2023-04-01T23:32:28;15.02;;;8.35;;
78489;SDS011;67776;52.012;4.736;2023-04-01T23:34:55;15.55;;;7.82;;
78489;SDS011;67776;52.012;4.736;2023-04-01T23:37:24;16.90;;;8.55;;
78489;SDS011;67776;52.012;4.736;2023-04-01T23:39:51;16.90;;;8.13;;
78489;SDS011;67776;52.012;4.736;2023-04-01T23:42:25;16.63;;;8.63;;
78489;SDS011;67776;52.012;4.736;2023-04-01T23:44:53;17.73;;;8.68;;
78489;SDS011;67776;52.012;4.736;2023-04-01T23:47:24;16.83;;;8.55;;
78489;SDS011;67776;52.012;4.736;2023-04-01T23:49:53;16.35;;;8.55;;
78489;SDS011;67776;52.012;4.736;2023-04-01T23:52:28;14.87;;;8.40;;
78489;SDS011;67776;52.012;4.736;2023-04-01T23:54:57;15.60;;;8.60;;
78489;SDS011;67776;52.012;4.736;2023-04-01T23:57:35;16.88;;;8.20;;
